McQueeney, Texas
Current Conditions -  °F | °C
As of 10:51 AM on Friday 19 Dec 2014 (Local Time) from KBAZ Reporting Station
Overcast Overcast  
Wind Chill: 56°   Ceiling: 1200
Heat Index: 56°   Visibility: 10mi
Dew Point: 54°   Wind: 18mph
Humidity: 93%   Direction: 30°NNE
Pressure: 30.11"   Gusts: NA
Location:  29.59°N, 98.03°W
Report Text: KBAZ 191651Z 03016KT 10SM OVC012 13/12 A3011 RMK AO2 SLP193 T01330122 $
Loading
Personal Weather Stations






























Interactive Weather Map New forecast layout! Learn more

10-Day Weather Forecast

Advertisements
Track Severe Weather on mobile